Time;durP1;ratioP1;P1;durP2;ratioP2;P2;SDS_P1;SDS_P2;PMS_P1;PMS_P2;Temp;Humidity;BMP_temperature;BMP_pressure;BME280_temperature;BME280_humidity;BME280_pressure;Samples;Min_cycle;Max_cycle;Signal;HPM_P1;HPM_P2
2021/05/23 00:01:24;;;;;;;5.43;2.17;;;13.20;67.50;;;;;;5036297;28;20200;-76
2021/05/23 00:03:50;;;;;;;3.80;2.07;;;13.20;68.00;;;;;;5038900;28;20193;-77
2021/05/23 00:06:17;;;;;;;3.77;1.77;;;13.10;67.50;;;;;;5044351;28;20479;-77
2021/05/23 00:08:43;;;;;;;2.77;1.50;;;13.20;67.00;;;;;;5032532;28;20263;-76
2021/05/23 00:11:10;;;;;;;4.67;1.40;;;13.20;66.90;;;;;;5042672;28;20422;-77
2021/05/23 00:13:45;;;;;;;3.60;1.80;;;13.20;66.30;;;;;;5044937;28;20593;-76
2021/05/23 00:16:14;;;;;;;2.13;1.23;;;13.20;66.70;;;;;;5044327;28;20442;-75
2021/05/23 00:18:43;;;;;;;2.63;1.50;;;13.20;66.90;;;;;;5047072;28;20427;-76
2021/05/23 00:21:11;;;;;;;2.00;1.67;;;13.10;67.00;;;;;;5048583;28;20427;-77
2021/05/23 00:23:37;;;;;;;2.57;1.80;;;13.00;67.50;;;;;;5044312;28;20515;-77
2021/05/23 00:26:03;;;;;;;3.47;1.33;;;13.00;67.50;;;;;;5041467;28;20486;-76
2021/05/23 00:28:30;;;;;;;3.50;1.40;;;13.00;67.50;;;;;;5044336;28;20467;-75
2021/05/23 00:30:57;;;;;;;2.00;1.40;;;13.00;67.70;;;;;;5043376;28;20440;-76
2021/05/23 00:33:23;;;;;;;3.73;1.30;;;12.90;68.20;;;;;;5048845;28;20437;-76
2021/05/23 00:35:49;;;;;;;7.70;2.03;;;12.90;68.50;;;;;;5041647;28;20964;-77
2021/05/23 00:38:15;;;;;;;1.53;1.43;;;12.90;68.80;;;;;;5041091;28;20497;-76
2021/05/23 00:40:41;;;;;;;1.97;1.30;;;12.80;68.90;;;;;;5047513;28;20651;-76
2021/05/23 00:43:12;;;;;;;1.60;1.10;;;12.80;69.20;;;;;;5033761;28;20185;-76
2021/05/23 00:45:39;;;;;;;1.60;1.20;;;12.80;69.40;;;;;;5046177;28;20439;-75
2021/05/23 00:48:05;;;;;;;2.90;1.10;;;12.70;69.80;;;;;;5047627;28;20476;-76
2021/05/23 00:50:31;;;;;;;1.73;1.20;;;12.80;69.80;;;;;;5042478;28;20856;-76
2021/05/23 00:52:59;;;;;;;2.47;1.30;;;12.80;70.10;;;;;;5039155;28;20442;-77
2021/05/23 00:55:25;;;;;;;3.50;1.40;;;12.70;70.50;;;;;;5034194;28;20209;-76
2021/05/23 00:57:51;;;;;;;2.00;1.10;;;12.60;70.80;;;;;;5034004;28;20771;-76
2021/05/23 01:00:40;;;;;;;2.30;1.40;;;12.60;71.30;;;;;;5042431;28;20189;-76
2021/05/23 01:05:52;;;;;;;2.23;1.40;;;12.50;72.10;;;;;;5040408;28;20452;-76
2021/05/23 01:08:18;;;;;;;1.47;1.27;;;12.60;72.30;;;;;;5047486;28;20736;-76
2021/05/23 01:11:02;;;;;;;4.20;1.77;;;12.60;72.40;;;;;;5039546;28;20435;-76
2021/05/23 01:13:34;;;;;;;1.80;1.40;;;12.50;72.60;;;;;;5046397;28;20180;-76
2021/05/23 01:16:18;;;;;;;2.33;1.37;;;12.50;72.90;;;;;;5036894;28;20479;-76
2021/05/23 01:18:46;;;;;;;5.20;1.57;;;12.40;73.60;;;;;;5035022;28;20412;-76
2021/05/23 01:21:13;;;;;;;3.80;1.30;;;12.40;74.20;;;;;;5021261;28;20416;-77
2021/05/23 01:23:50;;;;;;;4.23;1.50;;;12.40;74.30;;;;;;5036671;28;20431;-75
2021/05/23 01:26:16;;;;;;;5.80;1.23;;;12.40;74.60;;;;;;5044502;28;20529;-76
2021/05/23 01:29:01;;;;;;;2.00;1.20;;;12.40;74.80;;;;;;5040963;28;20518;-76
2021/05/23 01:31:30;;;;;;;2.30;1.40;;;12.40;75.40;;;;;;5054340;28;20467;-75
2021/05/23 01:33:57;;;;;;;2.53;0.90;;;12.40;76.10;;;;;;5060688;28;20438;-77
2021/05/23 01:36:30;;;;;;;2.20;1.20;;;12.30;76.40;;;;;;5045392;28;20447;-74
2021/05/23 01:38:56;;;;;;;2.33;1.20;;;12.30;77.00;;;;;;5050307;28;20419;-76
2021/05/23 01:41:23;;;;;;;2.83;0.93;;;12.30;77.30;;;;;;5055287;28;20438;-77
2021/05/23 01:43:49;;;;;;;3.20;1.20;;;12.30;77.30;;;;;;5069339;28;20423;-77
2021/05/23 01:46:16;;;;;;;3.37;1.53;;;12.20;77.40;;;;;;5063970;28;20443;-77
2021/05/23 01:48:42;;;;;;;3.93;1.17;;;12.20;77.60;;;;;;5054218;28;20815;-77
2021/05/23 01:51:08;;;;;;;2.57;1.37;;;12.20;77.60;;;;;;5044212;28;20538;-78
2021/05/23 01:53:36;;;;;;;1.50;1.00;;;12.20;77.60;;;;;;5038725;28;20189;-75
2021/05/23 01:56:03;;;;;;;7.03;2.27;;;12.20;77.80;;;;;;5037334;28;20735;-77
2021/05/23 01:58:29;;;;;;;2.40;1.60;;;12.20;78.00;;;;;;5034170;28;20455;-77
2021/05/23 02:00:55;;;;;;;1.97;1.10;;;12.20;78.00;;;;;;5042441;28;20415;-76
2021/05/23 02:03:22;;;;;;;4.70;1.50;;;12.10;78.10;;;;;;5046590;28;20267;-76
2021/05/23 02:05:50;;;;;;;1.63;1.00;;;12.00;78.60;;;;;;5036383;28;20443;-77
2021/05/23 02:08:18;;;;;;;2.20;1.13;;;12.00;78.60;;;;;;5034832;28;20999;-75
2021/05/23 02:10:45;;;;;;;5.43;1.53;;;12.00;78.40;;;;;;5032521;28;20871;-77
2021/05/23 02:13:11;;;;;;;2.20;1.40;;;12.10;78.60;;;;;;5031711;28;20428;-75
2021/05/23 02:15:38;;;;;;;2.07;1.27;;;12.10;78.60;;;;;;5047459;28;20450;-75
2021/05/23 02:18:05;;;;;;;2.30;1.20;;;12.10;78.90;;;;;;5052439;28;20427;-77
2021/05/23 02:20:31;;;;;;;1.80;1.00;;;12.10;79.00;;;;;;5051435;28;20476;-75
2021/05/23 02:22:59;;;;;;;3.00;1.23;;;12.10;79.00;;;;;;5051257;28;20462;-75
2021/05/23 02:25:27;;;;;;;1.87;1.37;;;12.20;79.00;;;;;;5051180;28;20450;-77
2021/05/23 02:27:57;;;;;;;1.97;1.30;;;12.00;80.00;;;;;;5051962;28;20833;-76
2021/05/23 02:30:35;;;;;;;4.80;1.67;;;11.90;82.40;;;;;;5036284;28;21035;-76
2021/05/23 02:33:03;;;;;;;2.73;1.17;;;11.80;84.70;;;;;;5031797;28;20430;-77
2021/05/23 02:35:32;;;;;;;2.60;1.07;;;11.60;86.80;;;;;;5048294;28;20451;-77
2021/05/23 02:37:59;;;;;;;1.80;1.07;;;11.00;87.30;;;;;;5053458;28;20419;-78
2021/05/23 02:40:28;;;;;;;4.83;1.00;;;10.60;90.30;;;;;;5039467;28;20412;-77
2021/05/23 02:42:55;;;;;;;3.73;1.27;;;10.30;91.60;;;;;;5033874;28;20427;-77
2021/05/23 02:45:21;;;;;;;1.77;1.03;;;10.10;92.60;;;;;;5032456;28;20459;-78
2021/05/23 02:47:48;;;;;;;2.10;1.00;;;10.00;92.60;;;;;;5031360;28;20436;-78
2021/05/23 02:50:17;;;;;;;1.40;1.00;;;9.80;92.80;;;;;;5044463;28;20609;-77
2021/05/23 02:52:43;;;;;;;2.27;1.07;;;9.70;93.80;;;;;;5032746;28;20420;-77
2021/05/23 02:55:10;;;;;;;4.03;1.23;;;9.70;94.70;;;;;;5039260;28;20439;-77
2021/05/23 02:57:37;;;;;;;1.77;1.30;;;9.60;94.90;;;;;;5036692;28;20567;-78
2021/05/23 03:00:06;;;;;;;1.40;0.93;;;9.60;95.00;;;;;;5031806;28;20485;-77
2021/05/23 03:02:33;;;;;;;4.13;0.97;;;9.50;95.00;;;;;;5031691;28;20539;-77
2021/05/23 03:04:58;;;;;;;1.20;0.87;;;9.50;94.90;;;;;;5033117;28;20507;-78
2021/05/23 03:07:24;;;;;;;3.47;0.90;;;9.50;95.40;;;;;;5046765;28;20815;-78
2021/05/23 03:09:50;;;;;;;2.27;1.03;;;9.50;94.80;;;;;;5043700;28;20649;-77
2021/05/23 03:12:16;;;;;;;1.40;0.90;;;9.50;94.80;;;;;;5032744;28;20181;-77
2021/05/23 03:14:42;;;;;;;1.50;0.73;;;9.50;95.00;;;;;;5045459;28;20189;-78
2021/05/23 03:17:11;;;;;;;1.20;0.70;;;9.40;94.80;;;;;;5045779;28;20484;-77
2021/05/23 03:19:38;;;;;;;2.00;0.80;;;9.40;94.50;;;;;;5051257;28;20583;-76
2021/05/23 03:22:05;;;;;;;3.77;0.80;;;9.30;94.30;;;;;;5053786;28;20458;-78
2021/05/23 03:24:32;;;;;;;2.50;0.80;;;9.30;94.20;;;;;;5046662;28;20435;-78
2021/05/23 03:26:57;;;;;;;1.37;0.70;;;9.30;93.80;;;;;;5047991;28;20465;-78
2021/05/23 03:29:23;;;;;;;0.97;0.70;;;9.40;93.30;;;;;;5040146;28;20466;-78
2021/05/23 03:31:49;;;;;;;1.30;0.80;;;9.50;92.80;;;;;;5040838;28;20216;-80
2021/05/23 03:34:15;;;;;;;7.53;0.80;;;9.50;92.30;;;;;;5054974;28;20298;-79
2021/05/23 03:36:40;;;;;;;1.97;0.70;;;9.60;92.20;;;;;;5052933;28;20215;-80
2021/05/23 03:39:06;;;;;;;1.20;0.70;;;9.60;92.00;;;;;;5032570;28;20197;-78
2021/05/23 03:41:32;;;;;;;2.00;0.90;;;9.60;92.20;;;;;;5047383;28;20291;-79
2021/05/23 03:43:58;;;;;;;1.60;0.80;;;9.60;92.10;;;;;;5052934;28;20223;-79
2021/05/23 03:46:24;;;;;;;1.30;0.67;;;9.60;92.30;;;;;;5041406;28;20251;-78
2021/05/23 03:48:50;;;;;;;2.13;1.07;;;9.70;92.20;;;;;;5044741;28;20212;-79
2021/05/23 03:51:15;;;;;;;1.20;0.80;;;9.70;92.10;;;;;;5040261;28;20270;-78
2021/05/23 03:53:41;;;;;;;1.80;0.90;;;9.70;92.20;;;;;;5036507;28;20962;-79
2021/05/23 03:56:07;;;;;;;1.37;0.80;;;9.70;91.20;;;;;;5041718;28;20228;-78
2021/05/23 03:58:33;;;;;;;1.20;0.70;;;9.70;91.60;;;;;;5036911;28;20189;-77
2021/05/23 04:00:59;;;;;;;0.90;0.60;;;9.70;91.70;;;;;;5035953;28;20185;-78
2021/05/23 04:03:25;;;;;;;5.93;1.00;;;9.70;91.50;;;;;;5036892;28;20497;-78
2021/05/23 04:05:51;;;;;;;1.57;0.87;;;9.80;91.80;;;;;;5040554;28;20263;-77
2021/05/23 04:08:17;;;;;;;1.17;0.63;;;9.80;92.00;;;;;;5040566;28;20812;-77
2021/05/23 04:10:50;;;;;;;2.10;0.93;;;9.80;92.30;;;;;;5052079;28;20192;-78
2021/05/23 04:13:17;;;;;;;1.60;0.90;;;9.90;92.20;;;;;;5051800;28;20185;-79
2021/05/23 04:15:43;;;;;;;1.80;0.90;;;9.90;92.50;;;;;;5044390;28;20443;-77
2021/05/23 04:18:08;;;;;;;1.80;1.03;;;9.90;92.50;;;;;;5051086;28;20431;-79
2021/05/23 04:20:34;;;;;;;2.07;1.00;;;9.90;92.50;;;;;;5048615;28;20203;-81
2021/05/23 04:23:00;;;;;;;1.53;0.90;;;9.90;92.60;;;;;;5036701;28;20199;-78
2021/05/23 04:25:26;;;;;;;2.10;0.87;;;9.90;92.40;;;;;;5048114;28;20201;-79
2021/05/23 04:27:52;;;;;;;2.47;0.90;;;9.90;92.40;;;;;;5048404;28;20204;-76
2021/05/23 04:30:21;;;;;;;2.07;1.03;;;10.00;92.40;;;;;;5032472;28;20545;-77
2021/05/23 04:32:48;;;;;;;1.60;0.90;;;10.00;92.20;;;;;;5030903;28;20434;-77
2021/05/23 04:35:15;;;;;;;3.27;1.10;;;10.00;92.20;;;;;;5031695;28;20519;-77
2021/05/23 04:37:42;;;;;;;5.57;1.53;;;10.00;92.10;;;;;;5051132;28;20572;-77
2021/05/23 04:40:09;;;;;;;1.77;0.97;;;10.00;92.10;;;;;;5050158;28;20514;-77
2021/05/23 04:42:36;;;;;;;1.57;0.70;;;10.10;92.20;;;;;;5051573;28;20427;-78
2021/05/23 04:45:04;;;;;;;1.57;0.90;;;10.10;92.20;;;;;;5047090;28;20444;-76
2021/05/23 04:47:30;;;;;;;1.37;0.80;;;10.20;92.20;;;;;;5041662;28;20414;-78
2021/05/23 04:49:56;;;;;;;2.13;1.10;;;10.20;92.00;;;;;;5046835;28;20476;-78
2021/05/23 04:52:21;;;;;;;1.40;0.90;;;10.20;91.90;;;;;;5030787;28;20438;-78
2021/05/23 04:54:47;;;;;;;4.20;1.27;;;10.30;92.00;;;;;;5031161;28;20863;-77
2021/05/23 04:57:13;;;;;;;1.73;1.00;;;10.30;91.70;;;;;;5044308;28;20187;-78
2021/05/23 04:59:39;;;;;;;1.80;0.87;;;10.30;91.70;;;;;;5038050;28;20205;-76
2021/05/23 05:02:04;;;;;;;3.10;1.13;;;10.30;91.90;;;;;;5044438;28;20195;-77
2021/05/23 05:04:30;;;;;;;4.23;1.07;;;10.30;91.80;;;;;;5054129;28;20196;-78
2021/05/23 05:06:56;;;;;;;2.57;1.23;;;10.40;91.60;;;;;;5054162;28;20766;-77
2021/05/23 05:09:22;;;;;;;1.83;1.10;;;10.40;91.40;;;;;;5047865;28;20547;-78
2021/05/23 05:11:48;;;;;;;2.40;1.23;;;10.40;91.20;;;;;;5035615;28;20199;-80
2021/05/23 05:14:14;;;;;;;2.10;1.23;;;10.40;91.60;;;;;;5034685;28;21111;-80
2021/05/23 05:16:41;;;;;;;3.63;1.00;;;10.30;91.60;;;;;;5035629;28;21183;-78
2021/05/23 05:19:10;;;;;;;2.17;1.30;;;10.30;91.80;;;;;;5034403;28;20519;-77
2021/05/23 05:21:36;;;;;;;1.90;1.00;;;10.40;92.00;;;;;;5034796;28;20863;-77
2021/05/23 05:24:03;;;;;;;2.73;1.03;;;10.40;91.70;;;;;;5035567;28;20439;-79
2021/05/23 05:26:28;;;;;;;2.03;1.13;;;10.50;91.30;;;;;;5035695;28;20443;-78
2021/05/23 05:28:54;;;;;;;3.93;1.00;;;10.60;91.20;;;;;;5038583;28;20467;-79
2021/05/23 05:31:20;;;;;;;2.50;1.20;;;10.60;90.80;;;;;;5045689;28;20276;-78
2021/05/23 05:33:46;;;;;;;1.40;0.90;;;10.70;89.90;;;;;;5035345;28;20189;-79
2021/05/23 05:36:11;;;;;;;1.87;0.90;;;10.70;90.00;;;;;;5036431;28;20436;-77
2021/05/23 05:38:37;;;;;;;1.97;1.00;;;10.70;90.20;;;;;;5035125;28;20239;-78
2021/05/23 05:41:03;;;;;;;2.43;1.03;;;10.70;90.50;;;;;;5036729;28;20327;-78
2021/05/23 05:43:29;;;;;;;2.10;1.10;;;10.70;90.80;;;;;;5039030;28;20177;-77
2021/05/23 05:45:55;;;;;;;1.70;1.03;;;10.70;91.20;;;;;;5043525;28;20476;-77
2021/05/23 05:48:20;;;;;;;1.67;1.03;;;10.70;91.60;;;;;;5040550;28;20193;-76
2021/05/23 05:50:47;;;;;;;3.10;2.33;;;10.60;91.70;;;;;;5036156;28;20189;-77
2021/05/23 05:53:13;;;;;;;3.90;1.03;;;10.60;91.60;;;;;;5047445;28;20216;-77
2021/05/23 05:55:38;;;;;;;1.97;1.23;;;10.60;92.20;;;;;;5061869;28;20435;-77
2021/05/23 05:58:04;;;;;;;1.50;1.00;;;10.70;91.80;;;;;;5070946;28;20858;-76
2021/05/23 06:00:30;;;;;;;2.00;0.90;;;10.80;92.00;;;;;;5057889;28;20287;-77
2021/05/23 06:02:56;;;;;;;2.00;0.93;;;10.90;91.50;;;;;;5048752;28;20286;-78
2021/05/23 06:05:22;;;;;;;2.73;1.27;;;10.90;91.00;;;;;;5034822;28;20961;-77
2021/05/23 06:07:47;;;;;;;2.00;1.10;;;10.90;91.20;;;;;;5032175;28;20264;-78
2021/05/23 06:10:15;;;;;;;2.57;1.03;;;10.90;91.00;;;;;;5033639;28;20204;-78
2021/05/23 06:12:41;;;;;;;1.83;1.00;;;10.80;91.40;;;;;;5052735;28;20665;-77
2021/05/23 06:15:08;;;;;;;2.07;1.33;;;10.80;92.00;;;;;;5043204;28;20957;-78
2021/05/23 06:17:34;;;;;;;3.53;1.07;;;10.80;91.90;;;;;;5034748;28;20455;-78
2021/05/23 06:20:00;;;;;;;2.53;1.10;;;10.90;91.60;;;;;;5040495;28;20447;-77
2021/05/23 06:22:26;;;;;;;10.00;1.50;;;11.00;91.40;;;;;;5062355;28;20485;-76
2021/05/23 06:24:52;;;;;;;1.67;1.10;;;11.10;91.10;;;;;;5035928;28;20424;-77
2021/05/23 06:27:18;;;;;;;1.80;1.07;;;11.20;90.30;;;;;;5040106;28;20479;-76
2021/05/23 06:29:45;;;;;;;1.60;1.07;;;11.20;90.00;;;;;;5042521;28;20221;-77
2021/05/23 06:32:11;;;;;;;4.30;1.03;;;11.20;90.00;;;;;;5048396;28;20229;-77
2021/05/23 06:34:37;;;;;;;1.93;1.00;;;11.40;89.50;;;;;;5034342;28;20432;-77
2021/05/23 06:37:03;;;;;;;1.83;1.10;;;11.40;89.00;;;;;;5035700;28;20989;-78
2021/05/23 06:39:29;;;;;;;1.60;1.00;;;11.40;88.70;;;;;;5046349;28;20226;-79
2021/05/23 06:41:54;;;;;;;2.57;1.30;;;11.40;88.10;;;;;;5041065;28;20461;-77
2021/05/23 06:44:20;;;;;;;1.80;1.03;;;11.40;88.00;;;;;;5046537;28;20219;-77
2021/05/23 06:46:46;;;;;;;3.40;1.20;;;11.40;87.10;;;;;;5035733;28;20248;-77
2021/05/23 06:49:13;;;;;;;1.23;0.90;;;11.40;87.70;;;;;;5036287;28;20667;-77
2021/05/23 06:51:38;;;;;;;2.20;1.13;;;11.20;87.30;;;;;;5049094;28;20191;-76
2021/05/23 06:54:05;;;;;;;3.17;1.10;;;11.20;88.00;;;;;;5035705;28;20423;-76
2021/05/23 06:56:31;;;;;;;4.40;1.30;;;11.20;88.00;;;;;;5048318;28;20213;-76
2021/05/23 06:58:57;;;;;;;3.30;0.90;;;11.30;87.40;;;;;;5044593;28;20441;-76
2021/05/23 07:01:22;;;;;;;2.83;1.30;;;11.40;87.70;;;;;;5041180;28;20418;-76
2021/05/23 07:03:48;;;;;;;2.70;0.90;;;11.50;86.90;;;;;;5044949;28;20448;-75
2021/05/23 07:06:14;;;;;;;6.47;0.90;;;11.50;86.20;;;;;;5034738;28;20220;-76
2021/05/23 07:08:40;;;;;;;1.40;1.00;;;11.60;85.90;;;;;;5034494;28;20285;-76
2021/05/23 07:11:05;;;;;;;1.80;0.83;;;11.70;86.00;;;;;;5046487;28;20726;-77
2021/05/23 07:13:31;;;;;;;1.60;0.90;;;11.70;85.20;;;;;;5043472;28;20192;-76
2021/05/23 07:15:57;;;;;;;1.20;0.90;;;11.60;85.60;;;;;;5049062;28;20276;-77
2021/05/23 07:18:23;;;;;;;1.03;0.90;;;11.60;85.30;;;;;;5044960;28;20207;-77
2021/05/23 07:20:48;;;;;;;2.33;1.00;;;11.50;84.90;;;;;;5054820;28;20227;-76
2021/05/23 07:23:14;;;;;;;2.13;1.10;;;11.60;85.30;;;;;;5044509;28;20216;-76
2021/05/23 07:25:40;;;;;;;1.73;0.80;;;11.60;84.00;;;;;;5047586;28;20311;-76
2021/05/23 07:28:07;;;;;;;2.67;1.10;;;11.70;83.40;;;;;;5033871;28;20185;-76
2021/05/23 07:30:33;;;;;;;2.17;0.97;;;11.80;82.50;;;;;;5029481;28;20491;-77
2021/05/23 07:32:59;;;;;;;1.20;0.90;;;12.00;82.70;;;;;;5024254;28;20416;-76
2021/05/23 07:35:25;;;;;;;2.40;1.10;;;12.00;83.00;;;;;;5049077;28;20447;-75
2021/05/23 07:37:51;;;;;;;4.60;1.30;;;12.10;83.00;;;;;;5033201;28;20420;-75
2021/05/23 07:40:16;;;;;;;2.40;1.10;;;12.20;83.00;;;;;;5035409;28;20852;-73
2021/05/23 07:42:43;;;;;;;2.73;0.80;;;12.30;82.40;;;;;;5031618;28;20194;-73
2021/05/23 07:45:09;;;;;;;1.87;1.10;;;12.30;79.60;;;;;;5047505;28;20204;-73
2021/05/23 07:47:35;;;;;;;3.30;1.37;;;11.90;83.60;;;;;;5050111;28;20916;-74
2021/05/23 07:50:03;;;;;;;1.60;1.13;;;11.40;88.60;;;;;;5046113;28;20451;-75
2021/05/23 07:52:29;;;;;;;3.23;0.90;;;10.50;90.00;;;;;;5044738;28;20427;-75
2021/05/23 07:54:54;;;;;;;4.00;1.10;;;9.70;91.10;;;;;;5052115;28;20454;-73
2021/05/23 07:57:20;;;;;;;4.60;1.00;;;9.20;92.60;;;;;;5050865;28;20669;-76
2021/05/23 07:59:46;;;;;;;3.10;1.00;;;8.90;93.40;;;;;;5047437;28;20180;-76
2021/05/23 08:02:12;;;;;;;3.50;0.97;;;8.80;94.00;;;;;;5060800;28;20217;-75
2021/05/23 08:04:37;;;;;;;2.37;1.40;;;8.70;94.00;;;;;;5040703;28;20204;-75
2021/05/23 08:07:03;;;;;;;2.50;1.10;;;8.70;93.90;;;;;;5041305;28;20325;-74
2021/05/23 08:09:29;;;;;;;4.57;1.07;;;8.80;94.70;;;;;;5028975;28;20219;-74
2021/05/23 08:11:55;;;;;;;4.43;1.53;;;8.90;94.90;;;;;;5028941;28;20522;-76
2021/05/23 08:14:21;;;;;;;2.77;1.30;;;8.90;95.10;;;;;;5028304;28;20430;-75
2021/05/23 08:16:48;;;;;;;3.57;1.40;;;8.90;95.50;;;;;;5028661;28;20811;-76
2021/05/23 08:19:14;;;;;;;2.67;1.10;;;9.00;95.80;;;;;;5028377;28;20184;-76
2021/05/23 08:21:40;;;;;;;2.53;1.30;;;9.10;95.60;;;;;;5029592;28;20433;-74
2021/05/23 08:24:07;;;;;;;4.40;1.47;;;9.30;95.60;;;;;;5043239;28;20497;-75
2021/05/23 08:26:34;;;;;;;2.63;1.10;;;9.40;95.40;;;;;;5039120;28;20537;-73
2021/05/23 08:29:01;;;;;;;4.13;1.07;;;9.60;95.00;;;;;;5029363;28;20464;-75
2021/05/23 08:31:27;;;;;;;3.17;1.00;;;9.70;95.00;;;;;;5033108;28;20432;-77
2021/05/23 08:33:52;;;;;;;6.17;2.83;;;9.90;94.00;;;;;;5050096;28;20430;-76
2021/05/23 08:36:18;;;;;;;3.57;1.50;;;10.00;94.80;;;;;;5040283;28;20446;-75
2021/05/23 08:38:44;;;;;;;6.10;1.60;;;10.20;94.40;;;;;;5033182;28;20181;-74
2021/05/23 08:41:10;;;;;;;3.90;1.40;;;10.50;94.00;;;;;;5032907;28;20674;-76
2021/05/23 08:43:36;;;;;;;3.30;1.30;;;10.90;92.70;;;;;;5051268;28;20216;-76
2021/05/23 08:46:02;;;;;;;3.23;1.17;;;11.30;91.30;;;;;;5052524;28;20291;-76
2021/05/23 08:48:28;;;;;;;2.90;1.00;;;11.60;91.00;;;;;;5034205;28;20420;-76
2021/05/23 08:50:54;;;;;;;5.20;1.20;;;11.90;90.80;;;;;;5033107;28;20434;-75
2021/05/23 08:53:21;;;;;;;1.93;1.30;;;12.20;86.00;;;;;;5038240;28;20899;-76
2021/05/23 08:55:47;;;;;;;4.23;1.43;;;12.30;85.90;;;;;;5040067;28;20497;-76
2021/05/23 08:58:15;;;;;;;3.77;1.20;;;12.50;87.40;;;;;;5050552;28;20426;-77
2021/05/23 09:00:41;;;;;;;1.50;1.10;;;12.60;84.60;;;;;;5053473;28;20176;-75
2021/05/23 09:03:18;;;;;;;1.73;1.00;;;12.80;81.10;;;;;;5034748;28;20440;-74
2021/05/23 09:05:56;;;;;;;2.73;1.30;;;12.90;79.20;;;;;;5046913;28;20984;-76
2021/05/23 09:08:28;;;;;;;3.27;1.30;;;13.10;79.30;;;;;;5021240;28;20779;-75
2021/05/23 09:10:59;;;;;;;2.27;1.37;;;13.00;80.80;;;;;;5031030;28;20423;-75
2021/05/23 09:13:36;;;;;;;1.40;0.80;;;12.80;82.70;;;;;;5032116;28;20420;-75
2021/05/23 09:16:07;;;;;;;1.73;1.07;;;12.70;81.10;;;;;;5044281;28;20844;-75
2021/05/23 09:18:54;;;;;;;2.00;1.17;;;12.80;83.80;;;;;;5044210;28;20785;-76
2021/05/23 09:21:25;;;;;;;2.10;1.00;;;12.80;83.00;;;;;;5043115;28;20415;-76
2021/05/23 09:23:53;;;;;;;3.80;1.00;;;12.90;83.10;;;;;;5033671;28;20412;-74
2021/05/23 09:26:24;;;;;;;4.53;1.30;;;12.60;79.30;;;;;;5042391;28;20436;-76
2021/05/23 09:28:51;;;;;;;2.97;1.30;;;12.40;79.90;;;;;;5047654;28;20546;-76
2021/05/23 09:31:22;;;;;;;2.30;1.13;;;12.50;81.20;;;;;;5051933;28;20514;-76
2021/05/23 09:33:52;;;;;;;2.47;1.20;;;12.50;81.20;;;;;;5034166;28;20416;-74
2021/05/23 09:36:19;;;;;;;2.40;1.40;;;12.50;79.90;;;;;;5036220;28;20539;-74
2021/05/23 09:38:59;;;;;;;2.13;1.30;;;12.50;78.00;;;;;;5031165;28;20424;-74
2021/05/23 09:41:27;;;;;;;3.20;1.17;;;12.60;78.10;;;;;;5030024;28;20547;-75
2021/05/23 09:44:12;;;;;;;4.20;1.90;;;12.60;77.10;;;;;;5034110;28;20423;-76
2021/05/23 09:46:59;;;;;;;1.27;0.80;;;12.70;78.70;;;;;;5049710;28;20435;-74
2021/05/23 09:49:27;;;;;;;2.07;0.80;;;12.30;76.50;;;;;;5040319;28;20475;-75
2021/05/23 09:51:52;;;;;;;1.90;1.07;;;11.80;80.50;;;;;;5030910;28;20424;-76
2021/05/23 09:54:18;;;;;;;2.30;0.90;;;11.30;79.00;;;;;;5029141;28;20854;-73
2021/05/23 09:56:44;;;;;;;2.43;1.77;;;11.10;82.10;;;;;;5036482;28;20246;-76
2021/05/23 09:59:23;;;;;;;1.97;1.30;;;11.10;84.00;;;;;;5038590;28;20448;-77
2021/05/23 10:01:49;;;;;;;1.90;1.10;;;11.40;84.70;;;;;;5041810;28;20220;-77
2021/05/23 10:04:20;;;;;;;2.60;1.00;;;11.50;80.30;;;;;;5039522;28;20434;-77
2021/05/23 10:06:58;;;;;;;1.23;0.90;;;11.70;78.40;;;;;;5046190;28;20459;-77
2021/05/23 10:09:25;;;;;;;2.63;0.73;;;12.00;79.60;;;;;;5047499;28;20466;-76
2021/05/23 10:11:51;;;;;;;1.20;0.97;;;12.10;75.80;;;;;;5042897;28;21039;-77
2021/05/23 10:14:16;;;;;;;2.73;0.93;;;12.40;77.60;;;;;;5043956;28;20456;-78
2021/05/23 10:16:43;;;;;;;1.70;1.10;;;12.70;78.90;;;;;;5033267;28;20237;-77
2021/05/23 10:19:11;;;;;;;2.63;1.23;;;13.10;73.70;;;;;;5047837;28;20193;-77
2021/05/23 10:21:37;;;;;;;3.80;1.20;;;13.10;72.40;;;;;;5045702;28;20437;-78
2021/05/23 10:24:04;;;;;;;2.10;1.00;;;13.40;74.20;;;;;;5036136;28;20456;-77
2021/05/23 10:26:32;;;;;;;1.90;1.20;;;13.90;69.80;;;;;;5042776;28;20695;-79
2021/05/23 10:29:00;;;;;;;2.20;1.40;;;14.40;70.20;;;;;;5052066;28;21072;-78
2021/05/23 10:31:34;;;;;;;1.33;1.13;;;14.90;68.20;;;;;;5040191;28;20547;-77
2021/05/23 10:34:00;;;;;;;3.50;1.30;;;15.30;66.00;;;;;;5033346;28;20481;-77
2021/05/23 10:36:37;;;;;;;2.20;1.20;;;15.60;61.20;;;;;;5037225;28;20459;-79
2021/05/23 10:39:09;;;;;;;2.43;1.10;;;15.90;59.60;;;;;;5019965;28;20477;-77
2021/05/23 10:41:35;;;;;;;1.67;1.20;;;16.30;59.10;;;;;;5032068;28;20553;-78
2021/05/23 10:44:04;;;;;;;2.30;1.17;;;16.40;57.20;;;;;;5032029;28;20854;-78
2021/05/23 10:46:42;;;;;;;1.27;0.83;;;16.80;55.40;;;;;;5030980;28;20980;-78
2021/05/23 10:49:07;;;;;;;1.70;0.90;;;16.80;54.60;;;;;;5030361;28;20474;-77
2021/05/23 10:51:33;;;;;;;1.10;1.00;;;16.30;53.60;;;;;;5030271;28;20802;-79
2021/05/23 10:53:59;;;;;;;3.20;1.23;;;16.10;54.50;;;;;;5029428;28;20191;-78
2021/05/23 10:56:29;;;;;;;1.03;0.90;;;15.60;56.60;;;;;;5028152;28;20219;-78
2021/05/23 10:59:02;;;;;;;2.63;1.10;;;15.40;58.10;;;;;;5040179;28;20204;-78
2021/05/23 11:01:42;;;;;;;1.87;1.00;;;15.20;59.90;;;;;;5036912;28;20470;-77
2021/05/23 11:04:16;;;;;;;2.50;1.47;;;14.90;63.90;;;;;;5030217;28;20458;-77
2021/05/23 11:06:44;;;;;;;2.77;1.40;;;15.30;64.10;;;;;;5017197;28;20455;-77
2021/05/23 11:09:34;;;;;;;3.50;1.43;;;15.10;62.60;;;;;;5030552;28;20463;-78
2021/05/23 11:12:10;;;;;;;3.00;0.93;;;15.00;59.70;;;;;;5031285;28;20423;-78
2021/05/23 11:14:36;;;;;;;2.53;1.50;;;14.60;62.60;;;;;;5047996;28;20434;-76
2021/05/23 11:17:02;;;;;;;2.93;1.20;;;14.70;65.60;;;;;;5036927;28;20440;-78
2021/05/23 11:19:31;;;;;;;4.77;1.50;;;14.80;63.10;;;;;;5029319;28;20475;-78
2021/05/23 11:21:59;;;;;;;1.40;0.90;;;14.50;63.70;;;;;;5030765;28;20189;-79
2021/05/23 11:24:30;;;;;;;1.17;1.03;;;14.20;65.40;;;;;;5029406;28;20423;-78
2021/05/23 11:26:56;;;;;;;1.70;1.30;;;14.00;66.90;;;;;;5030353;28;20921;-78
2021/05/23 11:29:26;;;;;;;2.27;1.50;;;14.20;66.90;;;;;;5029130;28;20975;-77
2021/05/23 11:31:51;;;;;;;2.03;1.07;;;14.40;65.70;;;;;;5029537;28;20455;-78
2021/05/23 11:34:21;;;;;;;7.20;1.00;;;14.50;64.70;;;;;;5029290;28;20938;-76
2021/05/23 11:36:48;;;;;;;2.00;1.20;;;14.70;63.70;;;;;;5030290;28;20451;-79
2021/05/23 11:39:17;;;;;;;2.33;1.10;;;14.90;62.60;;;;;;5047353;28;21092;-77
2021/05/23 11:41:46;;;;;;;3.00;0.87;;;15.20;59.30;;;;;;5049543;28;20423;-77
2021/05/23 11:44:13;;;;;;;1.27;0.83;;;15.30;57.20;;;;;;5043822;28;20493;-76
2021/05/23 11:46:42;;;;;;;1.60;0.90;;;15.20;58.20;;;;;;5029873;28;20447;-75
2021/05/23 11:49:20;;;;;;;1.30;0.80;;;15.40;57.70;;;;;;5041793;28;21100;-77
2021/05/23 11:51:46;;;;;;;1.73;1.23;;;15.70;55.40;;;;;;5037470;28;20421;-77
2021/05/23 11:54:12;;;;;;;1.30;1.00;;;15.60;54.10;;;;;;5040142;28;20441;-76
2021/05/23 11:56:40;;;;;;;1.13;0.80;;;15.40;54.60;;;;;;5031905;28;20990;-77
2021/05/23 11:59:07;;;;;;;1.00;0.90;;;15.10;54.00;;;;;;5029041;28;20449;-77
2021/05/23 12:01:46;;;;;;;2.23;0.93;;;15.10;55.40;;;;;;5043183;28;20519;-77
2021/05/23 12:04:14;;;;;;;2.40;0.90;;;15.40;54.40;;;;;;5042716;28;20423;-78
2021/05/23 12:06:48;;;;;;;1.20;0.90;;;16.00;53.30;;;;;;5036160;28;20446;-77
2021/05/23 12:09:14;;;;;;;1.20;0.83;;;16.10;51.20;;;;;;5046840;28;20556;-76
2021/05/23 12:11:49;;;;;;;1.87;1.10;;;15.90;51.70;;;;;;5040497;28;20949;-75
2021/05/23 12:14:29;;;;;;;1.57;0.97;;;16.40;52.00;;;;;;5032552;28;20237;-77
2021/05/23 12:17:09;;;;;;;1.17;0.90;;;16.40;51.30;;;;;;5037582;28;20930;-77
2021/05/23 12:20:00;;;;;;;3.53;0.80;;;16.50;53.20;;;;;;5022265;28;20517;-76
2021/05/23 12:22:33;;;;;;;1.20;0.90;;;17.00;52.40;;;;;;5032348;28;20907;-76
2021/05/23 12:25:05;;;;;;;1.73;1.00;;;17.10;52.50;;;;;;5029614;28;20489;-75
2021/05/23 12:27:33;;;;;;;1.83;0.80;;;17.70;51.70;;;;;;5042420;28;20444;-76
2021/05/23 12:30:13;;;;;;;1.37;0.90;;;17.70;47.10;;;;;;5029949;28;20471;-77
2021/05/23 12:32:47;;;;;;;1.20;0.83;;;17.70;47.10;;;;;;5017797;28;20861;-78
2021/05/23 12:35:18;;;;;;;2.03;0.90;;;17.60;47.40;;;;;;5034483;28;20457;-77
2021/05/23 12:37:53;;;;;;;3.03;1.07;;;17.20;48.10;;;;;;5044337;28;20492;-77
2021/05/23 12:40:27;;;;;;;2.37;1.10;;;16.80;49.10;;;;;;5035943;28;20439;-77
2021/05/23 12:43:18;;;;;;;2.20;1.10;;;16.60;50.50;;;;;;5038270;28;20833;-77
2021/05/23 12:45:54;;;;;;;6.50;1.23;;;16.20;52.10;;;;;;5026548;28;20520;-77
2021/05/23 12:48:23;;;;;;;2.40;1.27;;;16.10;53.00;;;;;;5032240;28;20874;-78
2021/05/23 12:50:51;;;;;;;2.73;1.00;;;15.90;54.90;;;;;;5028958;28;20463;-78
2021/05/23 12:53:40;;;;;;;1.30;0.97;;;16.20;53.60;;;;;;5042094;28;20432;-75
2021/05/23 12:56:20;;;;;;;1.63;0.87;;;15.60;54.10;;;;;;5040491;28;21174;-75